This is the latest recevied weather packets stored in our database for station/object W4CPD. If no packets are shown the sender has not sent any weather packets the latest 10 day(s).
| Time | Temp. | Humidity | Pressure | Rain* | Wind** | Luminosity | Snow |
|---|---|---|---|---|---|---|---|
| 1777962312 | 12.78° C | 91% | 1015.6 hPa | 0 mm | - | - | - |
| 1777961739 | 12.78° C | 91% | 1015.6 hPa | 0 mm | - | - | - |
| 1777953914 | 15° C | 85% | 1016 hPa | 0 mm | - | - | - |
| 1777953631 | 15° C | 85% | 1016.2 hPa | 0 mm | - | - | - |
| 1777953013 | 15° C | 84% | 1016.3 hPa | 0 mm | - | - | - |
| 1777951513 | 15.56° C | 82% | 1016.1 hPa | 0 mm | - | - | - |
| 1777951219 | 15.56° C | 81% | 1016.3 hPa | 0 mm | - | - | - |
| 1777949715 | 16.67° C | 79% | 1016.1 hPa | 0 mm | - | - | - |
| 1777949415 | 16.67° C | 78% | 1016 hPa | 0 mm | - | - | - |
| 1777947016 | 17.22° C | 74% | 1016 hPa | 0 mm | - | - | - |
| 1777945213 | 18.89° C | 70% | 1016 hPa | 0 mm | - | - | - |
| 1777944633 | 18.89° C | 68% | 1016.2 hPa | 0 mm | - | - | - |
| 1777943734 | 19.44° C | 66% | 1016.3 hPa | 0 mm | - | - | - |
| 1777943113 | 20° C | 64% | 1016.2 hPa | 0 mm | - | - | - |
| 1777940414 | 21.67° C | 57% | 1016.2 hPa | 0 mm | - | - | - |
| 1777939514 | 22.22° C | 55% | 1016.1 hPa | 0 mm | - | - | - |
| 1777937115 | 25° C | 48% | 1016.2 hPa | 0 mm | - | - | - |
| 1777936816 | 25° C | 47% | 1016.1 hPa | 0 mm | - | - | - |
| 1777936540 | 25° C | 48% | 1016.2 hPa | 0 mm | - | - | - |
| 1777935915 | 25° C | 48% | 1016.2 hPa | 0 mm | - | - | - |
| 1777935628 | 25° C | 47% | 1016.3 hPa | 0 mm | - | - | - |
| 1777935315 | 25° C | 47% | 1016.3 hPa | 0 mm | - | - | - |
| 1777932615 | 25.56° C | 46% | 1016.4 hPa | 0 mm | - | - | - |
| 1777930514 | 26.11° C | 43% | 1016.2 hPa | 0 mm | - | - | - |
| 1777929014 | 26.67° C | 42% | 1016.5 hPa | 0 mm | - | - | - |
* Rain latest hour (hover to see other rain measurements)
** Current wind speed in m/s (hover to see current wind gust speed)